Latest Weather Observations for Cunderdin Airport

IDW60801

Issued at 5:53 pm WST Monday 21 October 2019 (issued every 10 minutes, with the page automatically refreshed every 10 minutes)

About weather observations | Map of weather stations | Latest weather observations for WA | Other Formats
Station Details ID: 010286 Name: CUNDERDIN AIRFIELD Lat: -31.62 Lon: 117.22 Height: 216.7 m
Data from the previous 72 hours. | See also: Recent months at Cunderdin Airport
Date/Time
WST
Temp
°C
App
Temp
°C
Dew
Point
°C
Rel
Hum
%
Delta-T
°C
Wind Press
QNH
hPa
Press
MSL
hPa
Rain since
9am
mm
Dir  Spd
km/h
Gust
km/h
Spd
kts
Gust
kts
21/05:30pm 28.3 26.5 5.2 23 12.1 S 4 11 2 6 1017.2 1016.8 0.0
21/05:00pm 27.7 25.9 5.3 24 11.7 NNW 4 13 2 7 1017.0 1016.6 0.0
21/04:30pm 28.2 26.5 5.7 24 11.8 WNW 4 7 2 4 1016.9 1016.5 0.0
21/04:00pm 28.3 26.1 5.2 23 12.0 SE 6 11 3 6 1016.8 1016.4 0.0
21/03:30pm 29.1 26.7 5.2 22 12.5 WSW 7 15 4 8 1016.9 1016.5 0.0
21/03:00pm 28.7 26.5 6.1 24 12.0 WSW 7 17 4 9 1017.1 1016.7 0.0
21/02:30pm 27.8 25.7 6.0 25 11.5 SSE 6 13 3 7 1017.4 1017.0 0.0
21/02:00pm 26.8 24.5 7.3 29 10.4 W 9 17 5 9 1017.9 1017.5 0.0
21/01:30pm 27.0 25.2 8.0 30 10.3 SW 7 15 4 8 1018.2 1017.8 0.0
21/01:00pm 25.8 24.4 9.6 36 9.0 SSW 7 15 4 8 1018.4 1018.0 0.0
21/12:30pm 23.9 22.9 10.9 44 7.3 WSW 7 15 4 8 1018.7 1018.3 0.0
21/12:00pm 22.8 21.6 11.5 49 6.4 SSW 9 13 5 7 1019.1 1018.7 0.0
21/11:30am 21.6 20.3 11.3 52 5.8 SW 9 17 5 9 1019.6 1019.2 0.0
21/11:00am 20.9 20.5 12.3 58 4.9 ESE 6 13 3 7 1019.9 1019.5 0.0
21/10:30am 19.4 18.4 12.2 63 4.1 WSW 9 15 5 8 1020.2 1019.8 0.0
21/10:00am 19.2 18.9 12.7 66 3.7 E 6 9 3 5 1020.3 1019.9 0.0
21/09:44am 17.6 17.1 12.5 72 2.9 SW 7 11 4 6 1020.6 1020.2 0.0
21/09:30am 17.2 16.7 12.5 74 2.6 SSW 7 13 4 7 1020.7 1020.3 0.0
21/09:00am 16.5 16.5 12.5 77 2.2 SW 4 11 2 6 1020.4 1020.0 0.0
21/08:30am 16.1 15.8 12.7 80 1.9 S 6 11 3 6 1020.1 1019.7 0.0
21/08:00am 15.8 15.5 12.7 82 1.7 S 6 9 3 5 1020.1 1019.7 0.0
21/07:30am 15.6 15.1 12.7 83 1.6 SE 7 11 4 6 1020.0 1019.6 0.0
21/07:00am 15.3 14.8 12.8 85 1.4 S 7 9 4 5 1019.8 1019.4 0.0
21/06:30am 15.1 14.2 12.6 85 1.4 SW 9 13 5 7 1019.5 1019.0 0.0
21/06:00am 14.6 13.7 12.5 87 1.2 SW 9 11 5 6 1019.3 1018.8 0.0
21/05:30am 14.5 13.6 12.5 88 1.1 SW 9 11 5 6 1019.0 1018.6 0.0
21/05:00am 14.5 14.0 12.5 88 1.1 WSW 7 9 4 5 1018.8 1018.4 0.0
21/04:30am 14.1 13.6 12.8 92 0.7 SSW 7 11 4 6 1018.7 1018.3 0.0
21/04:00am 13.1 13.8 12.2 94 0.5 CALM 0 0 0 0 1018.6 1018.2 0.0
21/03:30am 12.5 12.6 11.6 94 0.5 W 2 6 1 3 1018.5 1018.1 0.0
21/03:00am 12.3 11.4 11.5 95 0.4 W 7 9 4 5 1018.4 1018.0 0.0
21/02:30am 11.9 11.0 11.4 97 0.3 WSW 7 9 4 5 1018.2 1017.8 0.0
21/02:05am 10.7 9.7 10.2 97 0.3 WSW 6 7 3 4 1018.2 1017.8 0.0
21/02:00am 10.4 9.3 9.9 97 0.3 WSW 6 7 3 4 1018.1 1017.7 0.0
21/01:30am 10.7 9.1 10.1 96 0.3 W 9 13 5 7 1018.0 1017.6 0.0
21/01:00am 11.0 9.1 10.4 96 0.3 WNW 11 11 6 6 1018.0 1017.6 0.0
21/12:30am 11.2 10.0 10.3 94 0.5 NW 7 9 4 5 1018.0 1017.6 0.0
21/12:00am 11.8 10.0 10.9 94 0.5 W 11 13 6 7 1018.0 1017.6 0.0
 
Date/Time
WST
Temp
°C
App
Temp
°C
Dew
Point
°C
Rel
Hum
%
Delta-T
°C
Wind Press
QNH
hPa
Press
MSL
hPa
Rain since
9am
mm
Dir  Spd
km/h
Gust
km/h
Spd
kts
Gust
kts
20/11:30pm 12.6 11.3 11.3 92 0.7 W 9 11 5 6 1018.1 1017.7 0.0
20/11:00pm 13.4 12.3 12.0 91 0.8 WNW 9 13 5 7 1018.2 1017.8 0.0
20/10:30pm 14.1 13.0 12.0 87 1.1 W 9 13 5 7 1018.3 1017.9 0.0
20/10:00pm 15.6 14.3 12.5 82 1.7 W 11 15 6 8 1018.4 1018.0 0.0
20/09:30pm 16.6 13.8 12.6 77 2.2 WSW 19 22 10 12 1018.5 1018.1 0.0
20/09:00pm 17.3 14.5 12.6 74 2.6 WSW 19 26 10 14 1018.5 1018.1 0.0
20/08:30pm 18.0 14.7 12.7 71 3.0 WSW 22 28 12 15 1018.5 1018.1 0.0
20/08:00pm 18.9 16.1 12.6 67 3.6 WSW 19 24 10 13 1018.2 1017.8 0.0
20/07:30pm 20.0 17.6 12.5 62 4.3 WSW 17 24 9 13 1017.5 1017.1 0.0
20/07:00pm 21.4 18.6 12.5 57 5.1 WSW 19 26 10 14 1017.0 1016.6 0.0
20/06:30pm 23.0 19.0 11.7 49 6.4 WSW 24 32 13 17 1016.5 1016.1 0.0
20/06:00pm 24.8 20.0 10.3 40 8.1 W 26 35 14 19 1015.9 1015.5 0.0
20/05:30pm 26.3 20.8 9.2 34 9.5 W 28 39 15 21 1015.5 1015.0 0.0
20/05:00pm 27.6 21.8 8.0 29 10.7 W 28 35 15 19 1015.2 1014.7 0.0
20/04:30pm 28.6 22.9 8.3 28 11.2 W 28 37 15 20 1014.9 1014.4 0.0
20/04:00pm 29.5 24.4 9.1 28 11.4 W 26 41 14 22 1014.5 1014.0 0.0
20/03:30pm 30.0 24.1 6.0 22 12.8 W 26 41 14 22 1014.2 1013.8 0.0
20/03:00pm 30.3 24.4 5.6 21 13.1 WNW 26 41 14 22 1014.0 1013.6 0.0
20/02:30pm 30.3 24.5 6.2 22 12.9 WNW 26 41 14 22 1014.2 1013.8 0.0
20/02:00pm 30.4 24.1 7.6 24 12.5 WNW 30 44 16 24 1014.5 1014.0 0.0
20/01:42pm 29.6 23.3 5.6 22 12.7 WNW 28 46 15 25 1014.7 1014.2 0.0
20/01:30pm 29.5 23.1 6.8 24 12.3 NW 30 41 16 22 1014.7 1014.2 0.0
20/01:06pm 29.5 23.3 6.2 23 12.5 WNW 28 46 15 25 1014.8 1014.3 0.0
20/01:00pm 29.8 24.4 6.5 23 12.5 WNW 24 35 13 19 1014.7 1014.2 0.0
20/12:49pm 28.7 22.4 5.5 23 12.2 WNW 28 46 15 25 1014.6 1014.1 0.0
20/12:30pm 29.3 23.2 6.7 24 12.2 WNW 28 43 15 23 1014.8 1014.3 0.0
20/12:00pm 28.2 22.0 6.3 25 11.6 WNW 28 41 15 22 1015.0 1014.5 0.0
20/11:30am 27.9 21.8 4.9 23 11.9 NW 26 39 14 21 1015.1 1014.6 0.0
20/11:00am 28.1 21.5 2.3 19 12.8 NW 26 41 14 22 1015.4 1014.9 0.0
20/10:30am 27.7 21.5 2.0 19 12.6 NW 24 39 13 21 1015.7 1015.3 0.0
20/10:00am 26.5 21.6 4.9 25 11.1 NW 20 32 11 17 1015.7 1015.3 0.0
20/09:30am 25.4 20.5 5.1 27 10.4 WNW 20 30 11 16 1015.9 1015.5 0.0
20/09:00am 24.8 19.5 5.1 28 10.0 WNW 22 30 12 16 1015.8 1015.4 0.0
20/08:30am 23.9 19.5 4.8 29 9.6 WNW 17 20 9 11 1015.8 1015.4 0.0
20/08:00am 21.5 18.2 4.6 33 8.3 WNW 11 15 6 8 1015.8 1015.4 0.0
20/07:30am 19.0 17.4 4.4 38 7.1 SW 2 6 1 3 1015.9 1015.5 0.0
20/07:00am 16.7 15.5 4.7 45 5.7 CALM 0 0 0 0 1016.0 1015.6 0.0
20/06:30am 13.5 12.4 5.2 57 3.9 CALM 0 0 0 0 1015.7 1015.3 0.0
20/06:00am 10.4 9.1 4.3 66 2.7 CALM 0 0 0 0 1015.5 1015.0 0.0
20/05:30am 9.4 7.2 3.4 66 2.6 E 4 7 2 4 1015.3 1014.8 0.0
20/05:00am 10.2 7.5 3.9 65 2.8 NE 7 9 4 5 1015.3 1014.8 0.0
20/04:30am 9.7 8.2 3.2 64 2.8 CALM 0 0 0 0 1014.9 1014.4 0.0
20/04:00am 11.2 9.9 4.0 61 3.2 CALM 0 0 0 0 1014.7 1014.2 0.0
20/03:30am 11.2 9.8 3.7 60 3.4 CALM 0 0 0 0 1014.7 1014.2 0.0
20/03:00am 12.9 11.7 4.6 57 3.8 CALM 0 0 0 0 1014.9 1014.4 0.0
20/02:30am 13.1 11.5 4.3 55 4.1 W 2 7 1 4 1014.9 1014.4 0.0
20/02:00am 15.1 12.7 4.5 49 5.0 SW 6 7 3 4 1015.0 1014.5 0.0
20/01:30am 15.3 12.7 4.1 47 5.2 W 7 9 4 5 1015.0 1014.5 0.0
20/01:00am 16.7 15.4 4.1 43 6.0 CALM 0 7 0 4 1015.2 1014.7 0.0
20/12:30am 19.2 16.1 3.4 35 7.5 NNW 9 15 5 8 1015.4 1014.9 0.0
20/12:00am 21.4 16.9 2.2 28 9.1 NNW 15 20 8 11 1015.4 1014.9 0.0
 
Date/Time
WST
Temp
°C
App
Temp
°C
Dew
Point
°C
Rel
Hum
%
Delta-T
°C
Wind Press
QNH
hPa
Press
MSL
hPa
Rain since
9am
mm
Dir  Spd
km/h
Gust
km/h
Spd
kts
Gust
kts
19/11:30pm 22.2 16.8 1.3 25 9.7 NNW 19 26 10 14 1015.2 1014.7 0.0
19/11:00pm 22.5 17.7 0.4 23 10.1 NNW 15 24 8 13 1015.1 1014.6 0.0
19/10:30pm 21.1 16.9 -0.8 23 9.7 NNW 11 17 6 9 1014.9 1014.4 0.0
19/10:00pm 20.8 17.8 0.6 26 9.2 NNE 6 9 3 5 1014.9 1014.4 0.0
19/09:30pm 20.8 17.8 2.1 29 8.8 WNW 7 11 4 6 1014.9 1014.4 0.0
19/09:00pm 23.8 19.7 2.0 24 10.4 NNW 13 17 7 9 1014.8 1014.3 0.0
19/08:30pm 24.2 19.5 2.9 25 10.4 NNW 17 30 9 16 1014.6 1014.1 0.0
19/08:00pm 23.3 20.1 3.3 27 9.8 NE 9 13 5 7 1013.8 1013.4 0.0
19/07:30pm 26.8 22.3 2.0 20 12.1 E 15 20 8 11 1013.3 1012.9 0.0
19/07:00pm 28.2 22.9 1.7 18 13.0 E 19 26 10 14 1013.0 1012.6 0.0
19/06:30pm 29.3 23.8 0.9 16 13.8 E 19 26 10 14 1012.8 1012.4 0.0
19/06:00pm 30.7 25.1 1.1 15 14.6 E 20 26 11 14 1012.8 1012.4 0.0
19/05:30pm 31.5 26.0 1.8 15 14.9 E 20 30 11 16 1012.9 1012.5 0.0
19/05:00pm 31.8 25.6 2.0 15 15.0 ENE 24 35 13 19 1013.1 1012.7 0.0
19/04:30pm 32.2 26.4 2.3 15 15.2 E 22 32 12 17 1013.4 1013.0 0.0
19/04:00pm 32.1 26.1 3.1 16 14.9 ENE 24 32 13 17 1013.6 1013.2 0.0
19/03:30pm 31.4 26.0 2.6 16 14.7 ENE 20 35 11 19 1013.8 1013.4 0.0
19/03:00pm 32.0 26.3 3.1 16 14.9 ENE 22 39 12 21 1013.9 1013.5 0.0
19/02:30pm 31.3 24.8 2.5 16 14.6 ENE 26 39 14 21 1014.5 1014.0 0.0
19/02:00pm 31.4 24.3 3.4 17 14.4 NE 30 39 16 21 1015.1 1014.6 0.0
19/01:30pm 30.8 24.7 3.0 17 14.2 ENE 24 35 13 19 1015.6 1015.1 0.0
19/01:00pm 30.0 24.2 4.6 20 13.2 E 24 44 13 24 1015.8 1015.4 0.0
19/12:30pm 29.1 23.1 5.2 22 12.5 E 26 35 14 19 1016.4 1016.0 0.0
19/12:00pm 27.5 21.7 4.5 23 11.8 E 24 37 13 20 1016.9 1016.5 0.0
19/11:30am 26.2 20.6 5.2 26 10.8 E 24 37 13 20 1017.6 1017.2 0.0
19/11:00am 25.6 20.5 5.8 28 10.3 E 22 33 12 18 1018.1 1017.7 0.0
19/10:30am 23.4 17.8 5.3 31 9.2 E 24 35 13 19 1018.7 1018.3 0.0
19/10:00am 22.5 16.9 5.4 33 8.6 E 24 37 13 20 1019.3 1018.8 0.0
19/09:30am 21.1 15.2 5.9 37 7.7 E 26 37 14 20 1019.6 1019.2 0.0
19/09:00am 19.3 13.0 5.7 41 6.7 E 28 39 15 21 1019.8 1019.4 0.0
19/08:30am 17.1 10.0 5.7 47 5.6 E 32 43 17 23 1020.2 1019.8 0.0
19/08:00am 15.6 8.9 5.8 52 4.7 E 30 41 16 22 1020.4 1020.0 0.0
19/07:30am 14.1 7.0 5.5 56 4.1 E 32 44 17 24 1020.5 1020.1 0.0
19/07:00am 12.6 7.0 5.3 61 3.4 ESE 24 35 13 19 1020.5 1020.1 0.0
19/06:30am 11.3 6.5 5.4 67 2.7 ESE 20 33 11 18 1020.5 1020.1 0.0
19/06:00am 10.4 6.1 5.4 71 2.3 ESE 17 24 9 13 1020.7 1020.3 0.0
19/05:30am 10.0 5.7 5.2 72 2.2 ESE 17 26 9 14 1020.5 1020.1 0.0
19/05:00am 10.2 5.6 5.4 72 2.2 ESE 19 26 10 14 1020.3 1019.9 0.0
19/04:30am 10.4 5.6 5.4 71 2.3 ESE 20 30 11 16 1020.1 1019.7 0.0
19/04:00am 10.7 5.5 5.5 70 2.4 ESE 22 32 12 17 1020.1 1019.7 0.0
19/03:30am 11.0 5.8 5.5 69 2.6 ESE 22 32 12 17 1020.3 1019.9 0.0
19/03:00am 11.2 6.0 5.7 69 2.6 ESE 22 35 12 19 1020.3 1019.9 0.0
19/02:30am 11.5 6.7 5.8 68 2.7 ESE 20 30 11 16 1020.2 1019.8 0.0
19/02:00am 11.9 6.4 5.8 66 2.9 ESE 24 35 13 19 1020.1 1019.7 0.0
19/01:30am 12.4 7.3 5.8 64 3.1 ESE 22 30 12 16 1020.0 1019.6 0.0
19/01:00am 13.1 8.0 5.8 61 3.5 ESE 22 32 12 17 1020.1 1019.7 0.0
19/12:30am 13.8 8.2 5.4 57 4.0 ESE 24 33 13 18 1020.2 1019.8 0.0
19/12:00am 14.5 8.5 5.3 54 4.4 ESE 26 41 14 22 1020.0 1019.6 0.0
 
Date/Time
WST
Temp
°C
App
Temp
°C
Dew
Point
°C
Rel
Hum
%
Delta-T
°C
Wind Press
QNH
hPa
Press
MSL
hPa
Rain since
9am
mm
Dir  Spd
km/h
Gust
km/h
Spd
kts
Gust
kts
18/11:30pm 15.1 9.5 5.3 52 4.7 ESE 24 39 13 21 1019.8 1019.4 0.0
18/11:00pm 16.0 9.9 4.7 47 5.4 ESE 26 39 14 21 1019.7 1019.3 0.0
18/10:30pm 16.5 10.4 2.5 39 6.4 ESE 24 33 13 18 1019.7 1019.3 0.0
18/10:00pm 17.5 11.2 -0.7 29 7.8 SE 22 35 12 19 1019.9 1019.5 0.0
18/09:30pm 17.8 12.5 -0.9 28 8.0 SE 17 24 9 13 1020.0 1019.6 0.0
18/09:00pm 18.4 12.7 -0.9 27 8.3 SE 19 26 10 14 1020.0 1019.6 0.0
18/08:30pm 19.0 13.1 -0.9 26 8.7 SE 20 26 11 14 1019.9 1019.5 0.0
18/08:00pm 19.2 13.3 -0.7 26 8.7 SE 20 28 11 15 1019.8 1019.4 0.0
18/07:30pm 19.6 14.3 -0.4 26 8.8 SE 17 24 9 13 1019.9 1019.5 0.0
18/07:00pm 20.5 14.9 -0.2 25 9.2 SE 19 26 10 14 1019.7 1019.3 0.0
18/06:30pm 21.5 15.7 0.1 24 9.7 SE 20 35 11 19 1019.1 1018.7 0.0
18/06:00pm 22.5 16.1 0.9 24 10.0 SE 24 32 13 17 1018.9 1018.5 0.0

Other formats

Comma delimited format used in spreadsheet applications
http://www.bom.gov.au/fwo/IDW60801/IDW60801.95625.axf

JavaScript Object Notation format (JSON) in row-major order
http://www.bom.gov.au/fwo/IDW60801/IDW60801.95625.json

Data quality

Most of these data are generated automatically and are frequently updated. Quality checks on data are not normally performed. It is possible for incorrect values to appear. Refer to information at About Latest Weather Observations and please check the disclaimer before using these data.